Time;durP1;ratioP1;P1;durP2;ratioP2;P2;SDS_P1;SDS_P2;PMS_P1;PMS_P2;Temp;Humidity;BMP_temperature;BMP_pressure;BME280_temperature;BME280_humidity;BME280_pressure;Samples;Min_cycle;Max_cycle;Signal;HPM_P1;HPM_P2
2022/05/24 00:00:27;;;;;;;8.13;7.33;;;;;;;28.16;nan;94046.41;4743309;30;20683;-75
2022/05/24 00:02:54;;;;;;;6.37;5.50;;;;;;;28.17;nan;94040.72;4762836;30;20442;-74
2022/05/24 00:05:20;;;;;;;5.53;5.03;;;;;;;28.15;nan;94037.56;4763639;30;20487;-75
2022/05/24 00:07:46;;;;;;;5.87;5.37;;;;;;;28.24;nan;94032.13;4758182;30;20446;-76
2022/05/24 00:10:16;;;;;;;6.80;6.20;;;;;;;28.32;nan;94025.13;4760911;30;20510;-75
2022/05/24 00:12:42;;;;;;;7.43;6.73;;;;;;;27.99;nan;94023.03;4753046;30;20233;-74
2022/05/24 00:15:24;;;;;;;6.90;6.37;;;;;;;27.93;nan;94032.38;4747826;30;20958;-75
2022/05/24 00:18:08;;;;;;;5.40;5.00;;;;;;;27.94;nan;94025.88;4731477;30;20450;-75
2022/05/24 00:20:38;;;;;;;11.23;5.90;;;;;;;27.58;nan;94029.66;4748887;30;20510;-74
2022/05/24 00:23:05;;;;;;;6.30;5.80;;;;;;;28.26;nan;94026.44;4761236;30;20449;-75
2022/05/24 00:25:33;;;;;;;7.27;5.70;;;;;;;27.64;nan;94044.53;4752501;30;20503;-75
2022/05/24 00:27:58;;;;;;;6.50;5.90;;;;;;;27.52;nan;94037.09;4757652;30;20444;-75
2022/05/24 00:30:24;;;;;;;6.13;5.33;;;;;;;27.59;nan;94052.78;4751300;30;20453;-75
2022/05/24 00:32:50;;;;;;;5.40;4.90;;;;;;;27.45;nan;94050.22;4745734;30;20555;-75
2022/05/24 00:35:15;;;;;;;6.27;5.67;;;;;;;27.55;nan;94051.81;4757233;30;20210;-75
2022/05/24 00:37:43;;;;;;;5.70;5.30;;;;;;;26.87;nan;94052.94;4733905;30;20286;-74
2022/05/24 00:40:16;;;;;;;6.57;5.90;;;;;;;26.98;nan;94052.69;4745233;30;20192;-74
2022/05/24 00:42:43;;;;;;;5.40;5.00;;;;;;;27.05;nan;94051.09;4729266;30;20446;-75
2022/05/24 00:45:17;;;;;;;6.40;5.90;;;;;;;26.97;nan;94059.91;4746931;30;20537;-75
2022/05/24 00:48:07;;;;;;;6.10;5.37;;;;;;;26.02;nan;94065.63;4755236;30;20440;-74
2022/05/24 00:50:38;;;;;;;8.00;5.67;;;;;;;26.42;nan;94057.66;4763069;30;20477;-74
2022/05/24 00:53:14;;;;;;;5.80;5.30;;;;;;;26.72;nan;94057.97;4760066;30;20517;-75
2022/05/24 00:55:51;;;;;;;5.70;5.20;;;;;;;26.47;nan;94060.19;4757764;30;20448;-75
2022/05/24 00:58:16;;;;;;;6.90;6.20;;;;;;;26.51;nan;94057.69;4749047;30;20590;-75
2022/05/24 01:00:42;;;;;;;7.10;5.83;;;;;;;26.67;nan;94062.38;4758182;30;20466;-75
2022/05/24 01:03:08;;;;;;;6.00;5.50;;;;;;;26.64;nan;94062.19;4749977;30;20199;-74
2022/05/24 01:05:34;;;;;;;6.40;5.90;;;;;;;26.67;nan;94059.69;4748245;30;20473;-75
2022/05/24 01:08:00;;;;;;;5.90;5.40;;;;;;;26.92;nan;94057.41;4748929;30;22413;-75
2022/05/24 01:10:31;;;;;;;6.17;5.60;;;;;;;27.06;nan;94065.31;4761626;30;20465;-74
2022/05/24 01:13:02;;;;;;;6.00;5.40;;;;;;;27.04;nan;94060.25;4746498;30;20213;-74
2022/05/24 01:15:27;;;;;;;5.97;5.30;;;;;;;27.01;nan;94065.47;4766463;30;20460;-75
2022/05/24 01:17:55;;;;;;;7.50;6.80;;;;;;;26.90;nan;94064.97;4756524;30;20449;-76
2022/05/24 01:20:21;;;;;;;8.90;5.67;;;;;;;26.85;nan;94057.84;4747174;30;20208;-75
2022/05/24 01:22:56;;;;;;;6.03;5.60;;;;;;;26.87;nan;94062.91;4757690;30;20494;-75
2022/05/24 01:25:36;;;;;;;5.93;5.50;;;;;;;26.78;nan;94062.09;4748160;30;20430;-75
2022/05/24 01:28:08;;;;;;;5.63;5.20;;;;;;;26.77;nan;94060.47;4748045;30;20535;-75
2022/05/24 01:30:34;;;;;;;7.03;4.93;;;;;;;26.28;nan;94055.84;4749399;30;20450;-75
2022/05/24 01:38:27;;;;;;;5.67;5.17;;;;;;;26.28;nan;94031.69;4765453;30;20452;-75
2022/05/24 01:40:54;;;;;;;5.97;5.47;;;;;;;26.21;nan;94039.38;4757192;30;20449;-75
2022/05/24 01:43:22;;;;;;;5.83;5.30;;;;;;;26.35;nan;94049.25;4765993;30;20199;-75
2022/05/24 01:46:03;;;;;;;6.30;4.80;;;;;;;25.80;nan;94042.25;4759963;30;20852;-75
2022/05/24 01:48:46;;;;;;;8.77;5.23;;;;;;;25.99;nan;94044.78;4749439;30;20528;-75
2022/05/24 01:51:15;;;;;;;6.53;5.00;;;;;;;25.99;nan;94042.91;4747954;30;20492;-74
2022/05/24 01:53:45;;;;;;;5.90;5.33;;;;;;;26.01;nan;94043.41;4761230;30;20469;-75
2022/05/24 01:56:15;;;;;;;5.43;4.97;;;;;;;25.93;nan;94049.47;4749064;30;20426;-75
2022/05/24 01:58:45;;;;;;;4.73;4.33;;;;;;;25.87;nan;94056.03;4742794;30;20446;-74
2022/05/24 02:01:16;;;;;;;5.80;4.20;;;;;;;25.92;nan;94058.63;4753655;30;20461;-75
2022/05/24 02:03:41;;;;;;;7.27;4.57;;;;;;;26.18;nan;94064.16;4765700;30;20500;-74
2022/05/24 02:06:25;;;;;;;4.67;4.37;;;;;;;26.10;nan;94079.09;4754488;30;20482;-75
2022/05/24 02:08:52;;;;;;;5.10;4.47;;;;;;;26.15;nan;94077.41;4731444;30;20287;-75
2022/05/24 02:11:23;;;;;;;6.57;4.63;;;;;;;26.07;nan;94074.34;4763165;30;20445;-74
2022/05/24 02:13:51;;;;;;;4.30;3.90;;;;;;;26.00;nan;94078.56;4760772;30;20513;-74
2022/05/24 02:16:23;;;;;;;4.37;3.97;;;;;;;26.11;nan;94066.47;4752017;30;20484;-74
2022/05/24 02:18:52;;;;;;;4.13;3.83;;;;;;;26.29;nan;94062.81;4747944;30;20443;-75
2022/05/24 02:21:18;;;;;;;5.43;4.87;;;;;;;26.17;nan;94072.50;4747641;30;20537;-75
2022/05/24 02:23:48;;;;;;;10.83;4.80;;;;;;;26.23;nan;94065.91;4750856;30;20470;-75
2022/05/24 02:26:15;;;;;;;5.37;4.87;;;;;;;26.21;nan;94055.47;4747527;30;20449;-74
2022/05/24 02:28:41;;;;;;;5.63;4.23;;;;;;;26.23;nan;94049.81;4747074;30;20494;-74
2022/05/24 02:31:14;;;;;;;7.27;4.03;;;;;;;25.36;nan;94035.78;4747533;30;20501;-75
2022/05/24 02:33:40;;;;;;;4.90;4.40;;;;;;;25.16;nan;94037.00;4764748;30;20925;-75
2022/05/24 02:36:06;;;;;;;5.83;5.33;;;;;;;25.51;nan;94038.13;4764928;30;20433;-75
2022/05/24 02:38:32;;;;;;;5.00;4.50;;;;;;;25.93;nan;94054.06;4765061;30;20541;-74
2022/05/24 02:43:42;;;;;;;6.10;5.63;;;;;;;25.73;nan;94074.09;4755498;30;20472;-75
2022/05/24 02:46:09;;;;;;;5.07;4.37;;;;;;;25.68;nan;94077.66;4752609;30;20446;-74
2022/05/24 02:48:35;;;;;;;5.57;5.00;;;;;;;26.26;nan;94078.72;4746645;30;20227;-75
2022/05/24 02:51:01;;;;;;;6.43;4.33;;;;;;;26.03;nan;94084.09;4746933;30;20482;-76
2022/05/24 02:53:26;;;;;;;6.13;5.33;;;;;;;26.44;nan;94075.00;4759392;30;20525;-75
2022/05/24 02:55:52;;;;;;;5.00;4.60;;;;;;;26.14;nan;94081.94;4764560;30;20195;-75
2022/05/24 02:58:17;;;;;;;5.30;4.73;;;;;;;25.98;nan;94072.72;4740861;30;20200;-75
2022/05/24 03:00:43;;;;;;;5.40;4.90;;;;;;;25.80;nan;94077.94;4746978;30;20192;-74
2022/05/24 03:03:09;;;;;;;7.27;4.83;;;;;;;25.89;nan;94088.69;4763132;30;20207;-75
2022/05/24 03:05:34;;;;;;;5.97;5.07;;;;;;;25.75;nan;94086.06;4764698;30;20447;-75
2022/05/24 03:10:44;;;;;;;5.17;4.67;;;;;;;25.94;nan;94095.88;4752225;30;20652;-75
2022/05/24 03:15:54;;;;;;;5.63;5.13;;;;;;;25.65;nan;94081.75;4754067;30;20267;-75
2022/05/24 03:18:21;;;;;;;5.27;4.83;;;;;;;24.96;nan;94081.84;4748121;30;20453;-75
2022/05/24 03:20:47;;;;;;;5.63;5.13;;;;;;;25.73;nan;94085.59;4751557;30;20227;-74
2022/05/24 03:23:13;;;;;;;5.80;5.30;;;;;;;25.74;nan;94079.13;4749589;30;20886;-74
2022/05/24 03:25:39;;;;;;;5.30;4.80;;;;;;;25.66;nan;94085.22;4760347;30;20504;-75
2022/05/24 03:28:06;;;;;;;6.90;5.60;;;;;;;25.93;nan;94076.28;4756412;30;22356;-75
2022/05/24 03:30:39;;;;;;;5.77;5.37;;;;;;;26.05;nan;94081.13;4760895;30;20233;-75
2022/05/24 03:33:04;;;;;;;5.77;5.00;;;;;;;25.96;nan;94072.22;4761835;30;20492;-75
2022/05/24 03:35:30;;;;;;;7.43;5.17;;;;;;;25.25;nan;94073.53;4746585;30;20880;-74
2022/05/24 03:37:55;;;;;;;6.00;5.40;;;;;;;25.38;nan;94077.25;4747698;30;20233;-75
2022/05/24 03:40:21;;;;;;;7.77;5.70;;;;;;;25.39;nan;94076.16;4748084;30;20584;-75
2022/05/24 03:42:47;;;;;;;6.90;6.30;;;;;;;25.77;nan;94081.19;4753038;30;20256;-75
2022/05/24 03:45:13;;;;;;;6.33;5.87;;;;;;;26.07;nan;94081.59;4746337;30;20199;-75
2022/05/24 03:47:38;;;;;;;6.30;5.70;;;;;;;26.44;nan;94076.91;4754530;30;20187;-74
2022/05/24 03:50:06;;;;;;;7.00;5.70;;;;;;;25.67;nan;94084.13;4746016;30;20220;-75
2022/05/24 03:52:31;;;;;;;6.50;5.90;;;;;;;25.63;nan;94080.44;4746406;30;20471;-75
2022/05/24 03:54:57;;;;;;;7.80;5.67;;;;;;;25.76;nan;94087.66;4745913;30;20894;-75
2022/05/24 04:00:07;;;;;;;8.63;6.00;;;;;;;26.00;nan;94081.25;4750405;30;20241;-74
2022/05/24 04:02:33;;;;;;;7.20;6.47;;;;;;;25.73;nan;94092.84;4745974;30;20541;-73
2022/05/24 04:04:58;;;;;;;6.17;5.73;;;;;;;25.87;nan;94093.56;4734614;30;20489;-75
2022/05/24 04:07:23;;;;;;;7.83;6.03;;;;;;;25.86;nan;94102.72;4744698;30;20233;-75
2022/05/24 04:09:49;;;;;;;6.50;6.10;;;;;;;25.39;nan;94100.28;4763546;30;20706;-76
2022/05/24 04:12:14;;;;;;;6.27;5.67;;;;;;;25.87;nan;94102.41;4758179;30;20211;-75
2022/05/24 04:14:40;;;;;;;6.73;6.10;;;;;;;26.07;nan;94108.44;4745996;30;20207;-74
2022/05/24 04:17:05;;;;;;;7.53;6.07;;;;;;;26.20;nan;94104.88;4740351;30;20323;-75
2022/05/24 04:19:31;;;;;;;7.90;5.60;;;;;;;26.52;nan;94108.34;4745881;30;20188;-75
2022/05/24 04:21:56;;;;;;;6.63;5.73;;;;;;;26.46;nan;94098.84;4736346;30;20593;-75
2022/05/24 04:24:22;;;;;;;7.30;6.70;;;;;;;26.02;nan;94116.59;4758976;30;20218;-75
2022/05/24 04:26:47;;;;;;;6.50;5.90;;;;;;;26.32;nan;94115.06;4752152;30;20204;-76
2022/05/24 04:29:14;;;;;;;8.83;6.93;;;;;;;26.60;nan;94099.59;4745424;30;20252;-75
2022/05/24 04:31:40;;;;;;;11.20;7.10;;;;;;;26.53;nan;94101.91;4744948;30;20207;-75
2022/05/24 04:34:06;;;;;;;6.70;6.17;;;;;;;27.01;nan;94092.31;4760603;30;20508;-75
2022/05/24 04:36:31;;;;;;;7.47;6.70;;;;;;;26.66;nan;94093.00;4730091;30;20480;-75
2022/05/24 04:38:58;;;;;;;7.00;6.30;;;;;;;26.44;nan;94093.78;4745731;30;20205;-75
2022/05/24 04:44:08;;;;;;;6.80;6.20;;;;;;;26.50;nan;94089.09;4753658;30;20461;-75
2022/05/24 04:49:20;;;;;;;8.03;7.30;;;;;;;27.18;nan;94091.56;4749182;30;20850;-74
2022/05/24 04:51:45;;;;;;;6.80;6.20;;;;;;;26.76;nan;94091.91;4746634;30;20486;-75
2022/05/24 04:54:11;;;;;;;6.97;6.33;;;;;;;26.79;nan;94103.97;4745693;30;20442;-73
2022/05/24 04:56:36;;;;;;;12.77;6.90;;;;;;;27.10;nan;94105.78;4747260;30;20238;-75
2022/05/24 04:59:02;;;;;;;7.57;6.60;;;;;;;27.01;nan;94108.44;4762891;30;20195;-77
2022/05/24 05:01:27;;;;;;;7.20;6.07;;;;;;;27.08;nan;94114.94;4762712;30;20204;-75
2022/05/24 05:03:53;;;;;;;8.73;6.50;;;;;;;27.11;nan;94123.47;4763349;30;20207;-75
2022/05/24 05:06:18;;;;;;;10.50;6.33;;;;;;;27.46;nan;94125.16;4746600;30;20195;-75
2022/05/24 05:08:44;;;;;;;8.50;6.03;;;;;;;27.85;nan;94126.16;4745411;30;20685;-75
2022/05/24 05:11:10;;;;;;;8.43;6.47;;;;;;;27.82;nan;94128.69;4759508;30;20199;-75
2022/05/24 05:13:35;;;;;;;7.10;6.50;;;;;;;27.21;nan;94136.63;4759208;30;20282;-75
2022/05/24 05:16:00;;;;;;;7.57;6.90;;;;;;;27.13;nan;94137.38;4753753;30;20222;-76
2022/05/24 05:18:26;;;;;;;6.90;6.37;;;;;;;26.61;nan;94130.69;4754691;30;20290;-75
2022/05/24 05:20:51;;;;;;;7.63;6.93;;;;;;;27.04;nan;94134.69;4745442;30;20263;-75
2022/05/24 05:23:17;;;;;;;7.77;7.07;;;;;;;27.55;nan;94137.84;4748276;30;20236;-75
2022/05/24 05:25:47;;;;;;;9.10;7.00;;;;;;;27.00;nan;94139.88;4754321;30;20672;-76
2022/05/24 05:28:13;;;;;;;9.27;7.50;;;;;;;27.07;nan;94140.22;4749018;30;20252;-75
2022/05/24 05:33:23;;;;;;;8.23;7.53;;;;;;;27.37;nan;94142.38;4758033;30;20461;-76
2022/05/24 05:35:49;;;;;;;10.27;7.63;;;;;;;27.58;nan;94142.59;4758934;30;20434;-75
2022/05/24 05:38:15;;;;;;;10.20;8.73;;;;;;;28.05;nan;94150.88;4728983;30;20338;-76
2022/05/24 05:40:41;;;;;;;14.80;7.97;;;;;;;27.80;nan;94153.22;4745043;30;20495;-75
2022/05/24 05:43:07;;;;;;;8.43;7.60;;;;;;;27.40;nan;94158.69;4747629;30;20272;-75
2022/05/24 05:45:32;;;;;;;12.73;7.30;;;;;;;27.92;nan;94152.59;4764494;30;20444;-74
2022/05/24 05:47:58;;;;;;;8.27;7.27;;;;;;;27.95;nan;94156.59;4765683;30;20203;-75
2022/05/24 05:50:23;;;;;;;7.83;6.50;;;;;;;27.74;nan;94156.38;4752543;30;20235;-75
2022/05/24 05:52:50;;;;;;;8.53;6.90;;;;;;;27.30;nan;94155.47;4748212;30;20203;-75
2022/05/24 05:55:15;;;;;;;11.80;7.47;;;;;;;27.76;nan;94154.16;4760724;30;20265;-75
2022/05/24 05:57:41;;;;;;;8.30;6.40;;;;;;;27.71;nan;94159.69;4749308;30;20454;-75
2022/05/24 06:00:08;;;;;;;7.80;7.00;;;;;;;28.31;nan;94168.91;4749718;30;20187;-75
2022/05/24 06:02:37;;;;;;;8.23;7.40;;;;;;;28.38;nan;94169.19;4765107;30;20209;-75
2022/05/24 06:05:03;;;;;;;9.93;7.30;;;;;;;27.54;nan;94168.50;4748826;30;20434;-75
2022/05/24 06:07:29;;;;;;;11.30;8.33;;;;;;;27.51;nan;94177.19;4765603;30;20446;-75
2022/05/24 06:09:54;;;;;;;9.00;8.10;;;;;;;28.04;nan;94176.22;4761458;30;20471;-73
2022/05/24 06:12:20;;;;;;;9.10;7.07;;;;;;;27.84;nan;94177.56;4765380;30;20203;-75
2022/05/24 06:14:45;;;;;;;9.23;7.37;;;;;;;28.86;nan;94178.97;4759139;30;20196;-75
2022/05/24 06:17:12;;;;;;;9.00;7.40;;;;;;;29.52;nan;94185.84;4765074;30;20227;-75
2022/05/24 06:19:37;;;;;;;9.63;7.20;;;;;;;27.48;nan;94192.06;4754018;30;20192;-74
2022/05/24 06:22:03;;;;;;;16.13;7.60;;;;;;;28.15;nan;94182.84;4747362;30;20462;-74
2022/05/24 06:24:29;;;;;;;12.10;7.67;;;;;;;27.81;nan;94183.56;4742631;30;20203;-75
2022/05/24 06:26:54;;;;;;;13.53;7.83;;;;;;;28.13;nan;94181.56;4765298;30;20430;-75
2022/05/24 06:29:20;;;;;;;13.57;7.80;;;;;;;29.11;nan;94179.19;4752445;30;20601;-75
2022/05/24 06:31:45;;;;;;;10.77;7.57;;;;;;;29.06;nan;94169.38;4760121;30;20234;-75
2022/05/24 06:34:14;;;;;;;10.07;8.10;;;;;;;29.34;nan;94169.75;4747658;30;20201;-75
2022/05/24 06:36:39;;;;;;;8.80;7.90;;;;;;;29.51;nan;94160.00;4750717;30;20203;-75
2022/05/24 06:39:05;;;;;;;7.90;7.20;;;;;;;30.15;nan;94162.44;4746903;30;20462;-75
2022/05/24 06:41:30;;;;;;;7.97;7.17;;;;;;;30.35;nan;94155.47;4748866;30;20286;-75
2022/05/24 06:43:55;;;;;;;10.40;6.80;;;;;;;29.79;nan;94152.25;4747725;30;20211;-75
2022/05/24 06:46:21;;;;;;;10.80;7.93;;;;;;;29.95;nan;94147.03;4759199;30;20226;-76
2022/05/24 06:48:46;;;;;;;7.83;7.00;;;;;;;30.32;nan;94149.94;4759938;30;20565;-75
2022/05/24 06:51:16;;;;;;;8.73;7.33;;;;;;;29.74;nan;94147.81;4763828;30;20318;-75
2022/05/24 06:53:44;;;;;;;10.90;8.10;;;;;;;30.20;nan;94137.13;4764347;30;20218;-74
2022/05/24 06:56:10;;;;;;;7.57;6.83;;;;;;;28.85;nan;94133.50;4745414;30;20525;-76
2022/05/24 06:58:37;;;;;;;6.87;6.47;;;;;;;28.75;nan;94142.72;4747817;30;20639;-75
2022/05/24 07:03:48;;;;;;;8.40;7.60;;;;;;;28.48;nan;94138.50;4762284;30;20532;-75
2022/05/24 07:06:15;;;;;;;10.17;8.07;;;;;;;29.74;nan;94145.13;4763583;30;20432;-75
2022/05/24 07:08:42;;;;;;;8.40;7.57;;;;;;;29.86;nan;94138.22;4757113;30;20486;-75
2022/05/24 07:11:08;;;;;;;7.90;7.20;;;;;;;29.90;nan;94147.22;4746625;30;20951;-75
2022/05/24 07:13:33;;;;;;;8.20;7.40;;;;;;;29.20;nan;94134.94;4746640;30;20454;-75
2022/05/24 07:15:58;;;;;;;8.60;7.80;;;;;;;29.59;nan;94151.88;4747677;30;20190;-75
2022/05/24 07:18:26;;;;;;;8.30;7.47;;;;;;;30.82;nan;94150.88;4746596;30;20333;-75
2022/05/24 07:20:52;;;;;;;9.63;8.03;;;;;;;30.06;nan;94152.84;4746456;30;20224;-75
2022/05/24 07:23:19;;;;;;;9.07;8.10;;;;;;;29.97;nan;94156.41;4746558;30;20442;-75
2022/05/24 07:25:47;;;;;;;9.50;7.70;;;;;;;30.90;nan;94155.41;4746838;30;20195;-75
2022/05/24 07:28:18;;;;;;;8.07;7.37;;;;;;;31.64;nan;94150.81;4746137;30;20449;-75
2022/05/24 07:30:44;;;;;;;7.90;7.10;;;;;;;29.99;nan;94153.34;4760941;30;21042;-75
2022/05/24 07:33:10;;;;;;;9.00;7.80;;;;;;;29.52;nan;94151.59;4747311;30;20449;-75
2022/05/24 07:35:37;;;;;;;8.83;7.90;;;;;;;30.00;nan;94143.38;4763176;30;20448;-75
2022/05/24 07:38:06;;;;;;;8.80;7.93;;;;;;;30.72;nan;94146.69;4757257;30;20446;-76
2022/05/24 07:46:06;;;;;;;10.00;7.47;;;;;;;31.45;nan;94142.47;4756259;30;20506;-76
2022/05/24 07:48:34;;;;;;;15.13;8.77;;;;;;;30.92;nan;94142.34;4747303;30;20560;-75
2022/05/24 07:51:00;;;;;;;19.10;10.00;;;;;;;31.38;nan;94145.75;4755620;30;20490;-76
2022/05/24 07:53:25;;;;;;;11.63;8.20;;;;;;;31.10;nan;94151.84;4756975;30;20465;-76
2022/05/24 07:55:51;;;;;;;9.03;8.10;;;;;;;30.40;nan;94146.38;4755104;30;20259;-76
2022/05/24 07:58:16;;;;;;;8.17;7.40;;;;;;;30.86;nan;94135.56;4746192;30;20191;-75
2022/05/24 08:00:42;;;;;;;10.77;7.80;;;;;;;31.21;nan;94127.84;4746637;30;20203;-75
2022/05/24 08:03:08;;;;;;;7.10;6.40;;;;;;;29.98;nan;94122.09;4745959;30;20200;-74
2022/05/24 08:05:35;;;;;;;9.10;8.20;;;;;;;29.49;nan;94125.28;4762595;30;20210;-75
2022/05/24 08:08:01;;;;;;;8.83;8.03;;;;;;;30.51;nan;94136.72;4759150;30;20192;-75
2022/05/24 08:10:28;;;;;;;16.53;7.97;;;;;;;31.70;nan;94132.44;4755019;30;20599;-75
2022/05/24 08:12:55;;;;;;;10.10;7.33;;;;;;;31.81;nan;94124.63;4754664;30;20192;-75
2022/05/24 08:15:21;;;;;;;7.93;7.23;;;;;;;31.49;nan;94135.28;4729998;30;20457;-75
2022/05/24 08:17:46;;;;;;;9.20;7.07;;;;;;;31.98;nan;94134.41;4749435;30;20450;-75
2022/05/24 08:20:12;;;;;;;8.03;7.30;;;;;;;32.35;nan;94137.81;4756454;30;20221;-75
2022/05/24 08:22:39;;;;;;;22.27;8.87;;;;;;;32.30;nan;94138.03;4763032;30;20206;-75
2022/05/24 08:25:07;;;;;;;10.30;8.47;;;;;;;33.00;nan;94139.50;4762931;30;20444;-76
2022/05/24 08:27:33;;;;;;;9.00;7.67;;;;;;;33.51;nan;94134.16;4747447;30;20449;-76
2022/05/24 08:29:59;;;;;;;7.80;7.00;;;;;;;33.48;nan;94132.13;4734320;30;20466;-75
2022/05/24 08:32:25;;;;;;;10.80;7.27;;;;;;;33.53;nan;94129.16;4745840;30;20196;-76
2022/05/24 08:34:51;;;;;;;11.80;9.17;;;;;;;31.40;nan;94131.88;4745040;30;20429;-75
2022/05/24 08:37:16;;;;;;;11.57;8.00;;;;;;;31.73;nan;94120.16;4748265;30;20459;-76
2022/05/24 08:39:42;;;;;;;10.80;8.00;;;;;;;33.26;nan;94130.88;4762460;30;20197;-75
2022/05/24 08:42:26;;;;;;;9.77;7.47;;;;;;;32.87;nan;94123.28;4761957;30;20281;-75
2022/05/24 08:50:40;;;;;;;11.40;7.93;;;;;;;33.15;nan;94146.88;4780919;30;20621;-76
2022/05/24 08:53:10;;;;;;;7.47;6.80;;;;;;;32.96;nan;94138.63;4753868;30;20557;-75
2022/05/24 08:55:41;;;;;;;9.43;7.40;;;;;;;32.45;nan;94142.72;4747370;30;20436;-74
2022/05/24 08:58:15;;;;;;;7.80;7.10;;;;;;;31.71;nan;94132.09;4745790;30;20521;-75
2022/05/24 09:00:42;;;;;;;8.23;7.60;;;;;;;33.05;nan;94129.19;4748531;30;20422;-76
2022/05/24 09:03:08;;;;;;;9.37;7.10;;;;;;;33.05;nan;94139.25;4745297;30;20454;-76
2022/05/24 09:05:39;;;;;;;8.83;8.03;;;;;;;33.83;nan;94143.03;4747846;30;20447;-75
2022/05/24 09:08:13;;;;;;;8.07;6.47;;;;;;;34.11;nan;94147.50;4744740;30;20448;-76
2022/05/24 09:10:41;;;;;;;7.97;7.23;;;;;;;34.06;nan;94142.34;4744587;30;20464;-75
2022/05/24 09:13:44;;;;;;;10.77;8.10;;;;;;;34.33;nan;94135.13;4756403;30;22047;-76
2022/05/24 09:16:16;;;;;;;7.70;7.00;;;;;;;33.63;nan;94115.03;4750392;30;20502;-75
2022/05/24 09:19:14;;;;;;;7.90;7.00;;;;;;;34.70;nan;94123.00;4749963;30;20448;-76
2022/05/24 09:21:42;;;;;;;9.10;8.20;;;;;;;34.56;nan;94115.38;4748674;30;20521;-76
2022/05/24 09:24:42;;;;;;;7.40;6.77;;;;;;;35.53;nan;94108.81;4755911;30;20465;-75
2022/05/24 09:27:20;;;;;;;7.93;7.10;;;;;;;35.07;nan;94120.56;4752453;30;20461;-77
2022/05/24 09:29:58;;;;;;;7.63;5.97;;;;;;;34.53;nan;94114.16;4766155;30;20471;-75
2022/05/24 09:32:43;;;;;;;9.87;7.77;;;;;;;32.74;nan;94110.97;4758898;30;20564;-75
2022/05/24 09:35:08;;;;;;;8.07;6.80;;;;;;;33.47;nan;94108.84;4733079;30;20504;-75
2022/05/24 09:37:35;;;;;;;11.53;8.20;;;;;;;33.50;nan;94112.78;4749857;30;20461;-75
2022/05/24 09:40:07;;;;;;;8.97;7.50;;;;;;;34.39;nan;94109.22;4760081;30;20271;-75
2022/05/24 09:42:36;;;;;;;11.93;7.70;;;;;;;35.52;nan;94112.72;4763374;30;20906;-76
2022/05/24 09:45:17;;;;;;;9.17;7.10;;;;;;;35.26;nan;94116.22;4758317;30;20434;-76
2022/05/24 09:47:42;;;;;;;12.20;7.70;;;;;;;35.90;nan;94117.16;4748130;30;20493;-76
2022/05/24 09:50:27;;;;;;;10.87;8.37;;;;;;;35.19;nan;94117.69;4736133;30;20485;-75
2022/05/24 09:53:01;;;;;;;11.73;7.60;;;;;;;35.20;nan;94115.72;4732259;30;20799;-75
2022/05/24 09:55:28;;;;;;;11.80;7.27;;;;;;;35.54;nan;94110.41;4751190;30;20448;-76
2022/05/24 09:57:53;;;;;;;6.93;6.30;;;;;;;35.74;nan;94092.84;4751912;30;20441;-76
2022/05/24 10:00:23;;;;;;;10.63;7.37;;;;;;;35.60;nan;94097.25;4763682;30;20452;-76
2022/05/24 10:03:03;;;;;;;7.67;6.90;;;;;;;35.69;nan;94106.75;4759715;30;20231;-76
2022/05/24 10:05:28;;;;;;;12.60;7.43;;;;;;;34.71;nan;94109.06;4747917;30;20419;-76
2022/05/24 10:08:04;;;;;;;10.70;7.83;;;;;;;36.22;nan;94100.44;4753431;30;20797;-76
2022/05/24 10:10:37;;;;;;;8.30;7.50;;;;;;;34.15;nan;94101.34;4765349;30;20703;-75
2022/05/24 10:13:32;;;;;;;7.27;6.63;;;;;;;34.61;nan;94109.66;4751337;30;20477;-75
2022/05/24 10:16:27;;;;;;;8.50;7.30;;;;;;;34.55;nan;94105.66;4754361;30;20456;-75
2022/05/24 10:19:14;;;;;;;7.03;6.37;;;;;;;35.83;nan;94105.38;4761682;30;20520;-75
2022/05/24 10:21:49;;;;;;;10.07;7.77;;;;;;;34.96;nan;94108.69;4753223;30;20433;-75
2022/05/24 10:24:29;;;;;;;8.67;7.87;;;;;;;33.71;nan;94102.41;4747453;30;20422;-76
2022/05/24 10:27:01;;;;;;;12.77;8.60;;;;;;;34.65;nan;94096.91;4748269;30;20469;-76
2022/05/24 10:29:51;;;;;;;9.80;7.27;;;;;;;35.99;nan;94092.38;4753118;30;20996;-75
2022/05/24 10:38:51;;;;;;;14.37;8.53;;;;;;;34.31;nan;94085.78;4750592;30;20468;-75
2022/05/24 10:41:34;;;;;;;9.70;7.87;;;;;;;35.29;nan;94083.63;4731410;30;20441;-75
2022/05/24 10:44:11;;;;;;;9.60;7.33;;;;;;;36.11;nan;94077.72;4747291;30;20521;-75
2022/05/24 10:47:02;;;;;;;9.80;8.83;;;;;;;36.71;nan;94074.06;4763505;30;20441;-76
2022/05/24 10:49:44;;;;;;;16.13;9.30;;;;;;;37.04;nan;94078.66;4749103;30;20488;-76
2022/05/24 10:52:23;;;;;;;8.67;7.97;;;;;;;36.83;nan;94067.56;4751067;30;20965;-75
2022/05/24 10:54:55;;;;;;;7.33;6.50;;;;;;;36.19;nan;94057.56;4770674;30;20452;-75
2022/05/24 10:58:01;;;;;;;7.90;7.30;;;;;;;35.54;nan;94062.19;4774923;30;20539;-75
2022/05/24 11:00:45;;;;;;;9.00;7.23;;;;;;;36.31;nan;94070.97;4779598;30;20408;-75
2022/05/24 11:03:36;;;;;;;8.13;7.03;;;;;;;34.69;nan;94065.13;4771556;30;20554;-75
2022/05/24 11:06:39;;;;;;;7.50;6.90;;;;;;;33.60;nan;94066.88;4769902;30;20433;-75
2022/05/24 11:09:11;;;;;;;8.10;7.43;;;;;;;34.82;nan;94060.31;4729099;30;20477;-76
2022/05/24 11:11:43;;;;;;;9.80;6.73;;;;;;;34.04;nan;94063.91;4766759;30;20449;-75
2022/05/24 11:14:13;;;;;;;10.27;7.80;;;;;;;32.88;nan;94057.09;4762623;30;20449;-75
2022/05/24 11:16:45;;;;;;;9.60;8.00;;;;;;;35.77;nan;94051.22;4776580;30;20452;-75
2022/05/24 11:19:16;;;;;;;10.67;9.60;;;;;;;36.10;nan;94049.69;4769771;30;20460;-75
2022/05/24 11:21:52;;;;;;;8.83;8.10;;;;;;;37.33;nan;94040.66;4768476;30;20438;-75
2022/05/24 11:24:43;;;;;;;8.63;7.03;;;;;;;37.19;nan;94029.69;4763542;30;20444;-76
2022/05/24 11:27:15;;;;;;;12.20;7.20;;;;;;;37.32;nan;94033.66;4748251;30;20445;-75
2022/05/24 11:29:50;;;;;;;9.03;6.50;;;;;;;37.67;nan;94032.31;4766276;30;20544;-76
2022/05/24 11:32:33;;;;;;;6.87;6.13;;;;;;;36.86;nan;94028.63;4771745;30;20518;-75
2022/05/24 11:35:04;;;;;;;7.50;6.93;;;;;;;38.10;nan;94024.28;4764077;30;20413;-75
2022/05/24 11:37:33;;;;;;;9.07;6.90;;;;;;;38.71;nan;94020.91;4763469;30;20476;-76
2022/05/24 11:40:30;;;;;;;11.33;6.63;;;;;;;38.92;nan;94018.16;4770602;30;20443;-75
2022/05/24 11:42:56;;;;;;;8.63;6.80;;;;;;;38.47;nan;94017.72;4763825;30;20445;-76
2022/05/24 11:45:28;;;;;;;7.63;6.93;;;;;;;37.46;nan;94011.88;4771893;30;20429;-75
2022/05/24 11:47:53;;;;;;;8.33;7.60;;;;;;;37.93;nan;94005.88;4765948;30;20463;-75
2022/05/24 11:50:31;;;;;;;7.13;6.60;;;;;;;38.69;nan;94001.38;4778046;30;20517;-75
2022/05/24 11:53:15;;;;;;;7.20;6.50;;;;;;;35.64;nan;93992.69;4737676;30;20204;-75
2022/05/24 11:55:48;;;;;;;7.53;6.27;;;;;;;33.87;nan;93988.34;4730636;30;20438;-75
2022/05/24 11:58:20;;;;;;;7.40;6.80;;;;;;;34.66;nan;93984.31;4754143;30;20554;-75
2022/05/24 12:00:54;;;;;;;7.97;7.17;;;;;;;35.42;nan;93978.03;4746019;30;20437;-75
2022/05/24 12:09:13;;;;;;;7.33;6.67;;;;;;;35.51;nan;93975.78;4763798;30;20523;-75
2022/05/24 12:11:39;;;;;;;9.80;6.90;;;;;;;37.02;nan;93969.09;4760082;30;20437;-75
2022/05/24 12:14:28;;;;;;;9.23;7.70;;;;;;;37.89;nan;93973.84;4762146;30;20454;-75
2022/05/24 12:16:54;;;;;;;8.03;7.07;;;;;;;39.45;nan;93959.03;4760953;30;20719;-75
2022/05/24 12:19:38;;;;;;;7.33;6.63;;;;;;;40.05;nan;93956.44;4754637;30;20504;-76
2022/05/24 12:22:18;;;;;;;8.77;7.90;;;;;;;40.87;nan;93966.84;4729979;30;20199;-75
2022/05/24 12:24:49;;;;;;;7.80;6.80;;;;;;;40.28;nan;93964.91;4761407;30;20433;-75
2022/05/24 12:27:34;;;;;;;7.80;7.00;;;;;;;41.10;nan;93959.97;4759523;30;20488;-76
2022/05/24 12:30:18;;;;;;;7.40;6.80;;;;;;;42.21;nan;93961.41;4745884;30;20500;-76
2022/05/24 12:32:44;;;;;;;9.73;6.90;;;;;;;39.99;nan;93953.31;4748720;30;20477;-76
2022/05/24 12:35:14;;;;;;;8.60;6.90;;;;;;;40.64;nan;93948.19;4759054;30;20965;-76
2022/05/24 12:37:50;;;;;;;8.03;7.43;;;;;;;40.85;nan;93951.94;4759896;30;20271;-75
2022/05/24 12:40:22;;;;;;;7.03;6.33;;;;;;;40.14;nan;93949.31;4746378;30;20426;-75
2022/05/24 12:42:55;;;;;;;7.43;6.80;;;;;;;41.23;nan;93947.28;4757725;30;20446;-76
2022/05/24 12:45:40;;;;;;;6.13;5.73;;;;;;;39.91;nan;93946.34;4737575;30;20864;-76
2022/05/24 12:48:24;;;;;;;7.90;6.80;;;;;;;40.84;nan;93955.91;4757712;30;20450;-76
2022/05/24 12:50:58;;;;;;;6.67;6.17;;;;;;;38.81;nan;93957.19;4736589;30;20473;-76
2022/05/24 12:53:23;;;;;;;12.23;6.90;;;;;;;39.35;nan;93954.34;4752124;30;20512;-76